BBC Delaware — V2CN9 — position and weather

sailwx.info

Track history (hours):
 
Tides and Currents Weather Stations Pressure Air Temp Water Temp Dewpoint Dewpoint Depression Visibility Wind Speed Wind Dir Waves Ship Positions

BBC Delaware

Last reported at 2014-Oct-13 10:11 UTC. Time now 2014-Oct-24 15:28 UTC.
Position N 26°41' W 079°36'.
Warning: this ship's position is 11 days out of date.

Length 138 m; draft 6.5 m.

Type: Cargo ship. MMSI: 305057000.

Date/timePositionNaut miles runAvg speedWind from/ knotsBaromVisibWave heightAir tempDewpointWater temp
2014-Oct-13 10:11N 26°41' W 079°36'1016.0
2014-Oct-13 09:33N 26°31' W 079°39'1616.1
2014-Oct-13 08:33N 26°16' W 079°43'1616.5
2014-Oct-13 07:33N 25°60' W 079°47'1616.2
2014-Oct-13 06:33N 25°44' W 079°52'  
2014-Oct-10 04:24N 29°21' W 094°45'1011.8
2014-Oct-10 03:33N 29°29' W 094°51'1312.6
2014-Oct-10 02:33N 29°40' W 094°58'8 7.8
2014-Oct-10 01:29N 29°45' W 095°06'1 0.4
2014-Oct-09 22:33N 29°44' W 095°07'0 0.0
2014-Oct-09 20:33N 29°44' W 095°07'0 0.0
2014-Oct-09 13:21N 29°44' W 095°07'0 0.0
2014-Oct-09 12:30N 29°44' W 095°07'6 0.4
2014-Oct-08 21:33N 29°43' W 095°14'0 0.0
2014-Oct-08 20:27N 29°43' W 095°14'0 0.0
2014-Oct-08 16:04N 29°43' W 095°14'0 0.0
2014-Oct-08 14:33N 29°43' W 095°14'0 0.0
2014-Oct-08 13:30N 29°43' W 095°14'0 0.0
2014-Oct-08 05:31N 29°43' W 095°14'0 0.0
2014-Oct-08 04:25N 29°43' W 095°14'0 0.0
2014-Oct-08 03:32N 29°43' W 095°14'0 0.0
2014-Oct-08 00:11N 29°43' W 095°14'0 0.0
2014-Oct-07 23:30N 29°43' W 095°14'0 0.0
2014-Oct-07 17:24N 29°43' W 095°14'0 0.0
2014-Oct-07 15:30N 29°43' W 095°14'0 0.0
2014-Oct-06 21:18N 29°43' W 095°14'0 0.0
2014-Oct-06 13:23N 29°43' W 095°14'1 0.1
2014-Oct-06 06:16N 29°44' W 095°13'4 5.5
2014-Oct-06 05:31N 29°44' W 095°09'2 1.0
2014-Oct-06 03:31N 29°45' W 095°06'0 0.0
2014-Oct-06 00:09N 29°45' W 095°06'0 0.0
2014-Oct-05 23:30N 29°45' W 095°06'0 0.0
2014-Oct-05 22:33N 29°45' W 095°06'0 0.0
2014-Oct-05 21:33N 29°45' W 095°06'0 0.0
2014-Oct-05 20:33N 29°45' W 095°06'0 0.0
2014-Oct-05 19:30N 29°45' W 095°06'0 0.0
2014-Oct-05 18:18N 29°45' W 095°06'0 0.0
2014-Oct-05 17:30N 29°45' W 095°06'0 0.0
2014-Oct-05 16:24N 29°45' W 095°06'0 0.0
2014-Oct-05 15:30N 29°45' W 095°06'0 0.0
2014-Oct-05 14:33N 29°45' W 095°06'0 0.0
2014-Oct-05 13:30N 29°45' W 095°06'0 0.0
2014-Oct-05 12:30N 29°45' W 095°06'0 0.0
2014-Oct-05 11:27N 29°45' W 095°06'0 0.0
2014-Oct-05 06:19N 29°45' W 095°06'0 0.0
2014-Oct-05 00:27N 29°45' W 095°06'0 0.0
2014-Oct-04 23:32N 29°45' W 095°06'0 0.0
2014-Oct-04 22:15N 29°45' W 095°06'0 0.0
2014-Oct-04 21:33N 29°45' W 095°06'0 0.0
2014-Oct-04 20:30N 29°45' W 095°06'0 0.0
2014-Oct-04 19:24N 29°45' W 095°06'0 0.0
2014-Oct-04 18:30N 29°45' W 095°06'0 0.0
2014-Oct-04 17:24N 29°45' W 095°06'0 0.0
2014-Oct-04 16:18N 29°45' W 095°06'0 0.0
2014-Oct-04 15:30N 29°45' W 095°06'0 0.0
2014-Oct-04 14:30N 29°45' W 095°06'0 0.0
2014-Oct-04 13:30N 29°45' W 095°06'0 0.0
2014-Oct-03 21:30N 29°45' W 095°06'0 0.0
2014-Oct-03 20:30N 29°45' W 095°06'0 0.0
2014-Oct-03 19:28N 29°45' W 095°06'0 0.0
2014-Oct-03 18:22N 29°45' W 095°06'0 0.0
2014-Oct-03 17:21N 29°45' W 095°06'0 0.0
2014-Oct-03 16:25N 29°45' W 095°06'0 0.0
2014-Oct-03 15:31N 29°45' W 095°06'0 0.0
2014-Oct-03 14:23N 29°45' W 095°06'0 0.0
2014-Oct-03 13:29N 29°45' W 095°06'  
Track history (hours):
 
Tides and Currents Weather Stations Pressure Air Temp Water Temp Dewpoint Dewpoint Depression Visibility Wind Speed Wind Dir Waves Ship Positions

BBC Delaware

Last reported at 2014-Oct-13 10:11 UTC. Time now 2014-Oct-24 15:28 UTC.
Position N 26°41' W 079°36'.
Warning: this ship's position is 11 days out of date.

Length 138 m; draft 6.5 m.

Type: Cargo ship. MMSI: 305057000.

Date/timePositionNaut miles runAvg speedWind from/ knotsBaromVisibWave heightAir tempDewpointWater temp
2014-Oct-13 10:11N 26°41' W 079°36'1016.0
2014-Oct-13 09:33N 26°31' W 079°39'1616.1
2014-Oct-13 08:33N 26°16' W 079°43'1616.5
2014-Oct-13 07:33N 25°60' W 079°47'1616.2
2014-Oct-13 06:33N 25°44' W 079°52'  
2014-Oct-10 04:24N 29°21' W 094°45'1011.8
2014-Oct-10 03:33N 29°29' W 094°51'1312.6
2014-Oct-10 02:33N 29°40' W 094°58'8 7.8
2014-Oct-10 01:29N 29°45' W 095°06'1 0.4
2014-Oct-09 22:33N 29°44' W 095°07'0 0.0
2014-Oct-09 20:33N 29°44' W 095°07'0 0.0
2014-Oct-09 13:21N 29°44' W 095°07'0 0.0
2014-Oct-09 12:30N 29°44' W 095°07'6 0.4
2014-Oct-08 21:33N 29°43' W 095°14'0 0.0
2014-Oct-08 20:27N 29°43' W 095°14'0 0.0
2014-Oct-08 16:04N 29°43' W 095°14'0 0.0
2014-Oct-08 14:33N 29°43' W 095°14'0 0.0
2014-Oct-08 13:30N 29°43' W 095°14'0 0.0
2014-Oct-08 05:31N 29°43' W 095°14'0 0.0
2014-Oct-08 04:25N 29°43' W 095°14'0 0.0
2014-Oct-08 03:32N 29°43' W 095°14'0 0.0
2014-Oct-08 00:11N 29°43' W 095°14'0 0.0
2014-Oct-07 23:30N 29°43' W 095°14'0 0.0
2014-Oct-07 17:24N 29°43' W 095°14'0 0.0
2014-Oct-07 15:30N 29°43' W 095°14'0 0.0
2014-Oct-06 21:18N 29°43' W 095°14'0 0.0
2014-Oct-06 13:23N 29°43' W 095°14'1 0.1
2014-Oct-06 06:16N 29°44' W 095°13'4 5.5
2014-Oct-06 05:31N 29°44' W 095°09'2 1.0
2014-Oct-06 03:31N 29°45' W 095°06'0 0.0
2014-Oct-06 00:09N 29°45' W 095°06'0 0.0
2014-Oct-05 23:30N 29°45' W 095°06'0 0.0
2014-Oct-05 22:33N 29°45' W 095°06'0 0.0
2014-Oct-05 21:33N 29°45' W 095°06'0 0.0
2014-Oct-05 20:33N 29°45' W 095°06'0 0.0
2014-Oct-05 19:30N 29°45' W 095°06'0 0.0
2014-Oct-05 18:18N 29°45' W 095°06'0 0.0
2014-Oct-05 17:30N 29°45' W 095°06'0 0.0
2014-Oct-05 16:24N 29°45' W 095°06'0 0.0
2014-Oct-05 15:30N 29°45' W 095°06'0 0.0
2014-Oct-05 14:33N 29°45' W 095°06'0 0.0
2014-Oct-05 13:30N 29°45' W 095°06'0 0.0
2014-Oct-05 12:30N 29°45' W 095°06'0 0.0
2014-Oct-05 11:27N 29°45' W 095°06'0 0.0
2014-Oct-05 06:19N 29°45' W 095°06'0 0.0
2014-Oct-05 00:27N 29°45' W 095°06'0 0.0
2014-Oct-04 23:32N 29°45' W 095°06'0 0.0
2014-Oct-04 22:15N 29°45' W 095°06'0 0.0
2014-Oct-04 21:33N 29°45' W 095°06'0 0.0
2014-Oct-04 20:30N 29°45' W 095°06'0 0.0
2014-Oct-04 19:24N 29°45' W 095°06'0 0.0
2014-Oct-04 18:30N 29°45' W 095°06'0 0.0
2014-Oct-04 17:24N 29°45' W 095°06'0 0.0
2014-Oct-04 16:18N 29°45' W 095°06'0 0.0
2014-Oct-04 15:30N 29°45' W 095°06'0 0.0
2014-Oct-04 14:30N 29°45' W 095°06'0 0.0
2014-Oct-04 13:30N 29°45' W 095°06'0 0.0
2014-Oct-03 21:30N 29°45' W 095°06'0 0.0
2014-Oct-03 20:30N 29°45' W 095°06'0 0.0
2014-Oct-03 19:28N 29°45' W 095°06'0 0.0
2014-Oct-03 18:22N 29°45' W 095°06'0 0.0
2014-Oct-03 17:21N 29°45' W 095°06'0 0.0
2014-Oct-03 16:25N 29°45' W 095°06'0 0.0
2014-Oct-03 15:31N 29°45' W 095°06'0 0.0
2014-Oct-03 14:23N 29°45' W 095°06'0 0.0
2014-Oct-03 13:29N 29°45' W 095°06'  

Dump ship's entire track history